createdAt,value
2019-06-15T00:02:08.520Z,56.00
2019-06-15T00:04:41.235Z,56.00
2019-06-15T00:07:13.754Z,55.90
2019-06-15T00:09:46.201Z,55.90
2019-06-15T00:12:18.602Z,56.70
2019-06-15T00:14:51.022Z,56.10
2019-06-15T00:17:23.449Z,56.20
2019-06-15T00:19:55.834Z,56.20
2019-06-15T00:22:28.284Z,56.10
2019-06-15T00:25:00.673Z,56.20
2019-06-15T00:27:33.140Z,56.20
2019-06-15T00:30:06.127Z,56.30
2019-06-15T00:32:39.534Z,56.20
2019-06-15T00:35:11.920Z,56.10
2019-06-15T00:37:44.383Z,56.10
2019-06-15T00:40:16.797Z,56.00
2019-06-15T00:42:49.207Z,55.90
2019-06-15T00:45:21.628Z,55.80
2019-06-15T00:47:53.992Z,55.80
2019-06-15T00:50:26.463Z,55.90
2019-06-15T00:52:58.931Z,55.90
2019-06-15T00:55:31.330Z,56.00
2019-06-15T00:58:03.726Z,55.90
2019-06-15T01:00:36.220Z,55.80
2019-06-15T01:03:08.606Z,55.80
2019-06-15T01:05:41.064Z,55.80
2019-06-15T01:08:13.453Z,55.80
2019-06-15T01:10:45.849Z,55.90
2019-06-15T01:13:18.228Z,55.90
2019-06-15T01:15:50.656Z,55.90
2019-06-15T01:18:23.032Z,56.00
2019-06-15T01:20:55.501Z,56.00
2019-06-15T01:23:27.909Z,56.20
2019-06-15T01:26:00.311Z,56.30
2019-06-15T01:28:32.715Z,56.20
2019-06-15T01:31:05.132Z,56.00
2019-06-15T01:33:37.518Z,56.00
2019-06-15T01:36:09.948Z,55.80
2019-06-15T01:38:42.325Z,56.00
2019-06-15T01:41:14.852Z,55.90
2019-06-15T01:43:47.248Z,55.90
2019-06-15T01:46:19.657Z,55.90
2019-06-15T01:48:52.116Z,55.80
2019-06-15T01:51:24.536Z,55.70
2019-06-15T01:53:56.894Z,55.60
2019-06-15T01:56:29.291Z,55.60
2019-06-15T01:59:01.677Z,55.40
2019-06-15T02:01:34.091Z,55.40
2019-06-15T02:04:06.511Z,55.30
2019-06-15T02:06:38.919Z,55.30
2019-06-15T02:09:11.335Z,55.90
2019-06-15T02:11:43.804Z,55.30
2019-06-15T02:14:16.178Z,55.30
2019-06-15T02:16:48.670Z,55.30
2019-06-15T02:19:21.047Z,55.30
2019-06-15T02:21:53.463Z,55.30
2019-06-15T02:24:26.023Z,55.40
2019-06-15T02:26:58.437Z,55.40
2019-06-15T02:29:30.819Z,55.40
2019-06-15T02:32:03.328Z,55.40
2019-06-15T02:34:35.791Z,55.40
2019-06-15T02:37:08.193Z,55.40
2019-06-15T02:39:40.509Z,55.40
2019-06-15T02:42:12.921Z,55.30
2019-06-15T02:44:45.306Z,55.40
2019-06-15T02:47:17.712Z,55.40
2019-06-15T02:49:50.093Z,55.30
2019-06-15T02:52:22.508Z,56.00
2019-06-15T02:54:54.901Z,55.40
2019-06-15T02:57:27.310Z,55.40
2019-06-15T03:00:00.968Z,55.40
2019-06-15T03:02:33.633Z,55.40
2019-06-15T03:05:06.137Z,55.40
2019-06-15T03:07:38.493Z,55.70
2019-06-15T03:10:10.880Z,55.40
2019-06-15T03:12:43.293Z,55.40
2019-06-15T03:15:15.722Z,55.20
2019-06-15T03:17:48.124Z,55.40
2019-06-15T03:20:20.455Z,55.40
2019-06-15T03:22:52.886Z,55.40
2019-06-15T03:25:26.231Z,55.40
2019-06-15T03:27:58.646Z,55.40
2019-06-15T03:30:32.528Z,55.40
2019-06-15T03:33:04.999Z,55.90
2019-06-15T03:35:37.380Z,55.20
2019-06-15T03:38:09.829Z,55.20
2019-06-15T03:40:43.253Z,55.20
2019-06-15T03:43:15.717Z,55.40
2019-06-15T03:45:48.140Z,56.00
2019-06-15T03:48:20.467Z,55.50
2019-06-15T03:50:52.940Z,55.50
2019-06-15T03:53:25.284Z,55.50
2019-06-15T03:55:57.688Z,55.50
2019-06-15T03:58:30.014Z,55.60
2019-06-15T04:01:25.175Z,55.60
2019-06-15T04:03:57.596Z,55.70
2019-06-15T04:06:30.007Z,55.80
2019-06-15T04:09:02.337Z,55.90
2019-06-15T04:11:35.795Z,56.00
2019-06-15T04:14:08.225Z,56.20
2019-06-15T04:16:40.574Z,56.20
2019-06-15T04:19:12.997Z,56.50
2019-06-15T04:21:45.403Z,56.60
2019-06-15T04:24:17.815Z,56.80
2019-06-15T04:26:50.229Z,57.00
2019-06-15T04:29:22.659Z,57.00
2019-06-15T04:31:55.059Z,57.20
2019-06-15T04:34:27.499Z,57.20
2019-06-15T04:36:59.908Z,57.30
2019-06-15T04:39:32.354Z,57.20
2019-06-15T04:42:04.735Z,57.20
2019-06-15T04:44:37.151Z,57.30
2019-06-15T04:47:09.536Z,57.30
2019-06-15T04:49:41.948Z,57.30
2019-06-15T04:52:14.354Z,57.40
2019-06-15T04:54:46.846Z,57.40
2019-06-15T04:57:19.242Z,57.40
2019-06-15T04:59:51.670Z,57.50
2019-06-15T05:02:27.154Z,57.50
2019-06-15T05:04:58.174Z,57.50
2019-06-15T05:07:30.493Z,57.70
2019-06-15T05:10:02.900Z,57.60
2019-06-15T05:12:35.318Z,57.10
2019-06-15T05:15:07.813Z,56.90
2019-06-15T05:17:40.204Z,56.50
2019-06-15T05:20:13.421Z,56.70
2019-06-15T05:22:46.029Z,56.50
2019-06-15T05:25:18.428Z,56.20
2019-06-15T05:27:50.820Z,56.50
2019-06-15T05:30:23.246Z,56.40
2019-06-15T05:32:55.690Z,56.40
2019-06-15T05:35:28.080Z,56.50
2019-06-15T05:38:00.456Z,56.30
2019-06-15T05:40:32.917Z,56.50
2019-06-15T05:43:05.335Z,56.60
2019-06-15T05:45:37.744Z,56.50
2019-06-15T05:48:10.193Z,57.00
2019-06-15T05:50:42.597Z,56.40
2019-06-15T05:53:14.981Z,56.30
2019-06-15T05:55:47.386Z,56.30
2019-06-15T05:58:19.826Z,56.20
2019-06-15T06:00:52.237Z,56.50
2019-06-15T06:03:24.546Z,56.70
2019-06-15T06:05:56.963Z,56.70
2019-06-15T06:08:29.358Z,56.90
2019-06-15T06:11:01.785Z,56.90
2019-06-15T06:13:34.164Z,56.80
2019-06-15T06:16:06.607Z,56.70
2019-06-15T06:18:39.004Z,56.70
2019-06-15T06:21:11.406Z,56.90
2019-06-15T06:23:43.719Z,57.00
2019-06-15T06:26:16.115Z,56.90
2019-06-15T06:28:56.751Z,57.00
2019-06-15T06:31:23.664Z,56.70
2019-06-15T06:33:56.045Z,56.80
2019-06-15T06:36:28.448Z,56.90
2019-06-15T06:39:00.826Z,57.20
2019-06-15T06:41:34.906Z,57.10
2019-06-15T06:44:07.277Z,57.00
2019-06-15T06:46:39.698Z,57.50
2019-06-15T06:49:12.081Z,57.40
2019-06-15T06:51:44.503Z,57.30
2019-06-15T06:54:16.956Z,57.10
2019-06-15T06:56:49.367Z,57.70
2019-06-15T06:59:21.748Z,57.20
2019-06-15T07:01:54.147Z,57.10
2019-06-15T07:04:26.529Z,57.10
2019-06-15T07:06:58.926Z,57.10
2019-06-15T07:09:31.310Z,57.00
2019-06-15T07:12:03.765Z,57.20
2019-06-15T07:14:36.148Z,56.90
2019-06-15T07:17:08.590Z,56.80
2019-06-15T07:19:40.919Z,56.50
2019-06-15T07:22:13.310Z,56.50
2019-06-15T07:24:45.732Z,56.40
2019-06-15T07:27:18.130Z,55.90
2019-06-15T07:29:50.438Z,56.00
2019-06-15T07:32:22.855Z,55.90
2019-06-15T07:34:55.234Z,56.10
2019-06-15T07:37:27.640Z,56.10
2019-06-15T07:40:00.027Z,56.40
2019-06-15T07:42:32.513Z,56.50
2019-06-15T07:45:05.066Z,56.30
2019-06-15T07:47:37.475Z,56.30
2019-06-15T07:50:10.454Z,56.50
2019-06-15T07:52:42.842Z,56.60
2019-06-15T07:55:16.326Z,56.80
2019-06-15T07:57:48.751Z,56.50
2019-06-15T08:00:21.060Z,56.40
2019-06-15T08:02:53.636Z,56.40
2019-06-15T08:05:25.999Z,56.30
2019-06-15T08:07:58.556Z,57.00
2019-06-15T08:10:32.627Z,56.40
2019-06-15T08:13:05.095Z,57.10
2019-06-15T08:15:37.684Z,56.80
2019-06-15T08:18:10.088Z,56.90
2019-06-15T08:20:43.601Z,56.40
2019-06-15T08:23:16.008Z,56.40
2019-06-15T08:25:48.477Z,56.50
2019-06-15T08:28:20.945Z,55.90
2019-06-15T08:30:53.734Z,55.70
2019-06-15T08:33:26.404Z,55.70
2019-06-15T08:36:02.103Z,55.20
2019-06-15T08:38:32.911Z,55.40
2019-06-15T08:41:05.307Z,55.00
2019-06-15T08:43:37.689Z,55.40
2019-06-15T08:46:10.104Z,54.90
2019-06-15T08:48:42.512Z,55.10
2019-06-15T08:51:14.924Z,55.40
2019-06-15T08:53:47.413Z,55.00
2019-06-15T08:56:19.813Z,55.00
2019-06-15T08:58:55.491Z,55.10
2019-06-15T09:01:26.384Z,54.80
2019-06-15T09:03:58.781Z,55.10
2019-06-15T09:06:31.172Z,55.40
2019-06-15T09:09:03.736Z,55.70
2019-06-15T09:11:37.311Z,55.90
2019-06-15T09:14:09.765Z,55.20
2019-06-15T09:16:42.201Z,55.40
2019-06-15T09:19:14.524Z,55.20
2019-06-15T09:21:46.932Z,55.40
2019-06-15T09:24:19.327Z,55.70
2019-06-15T09:26:51.754Z,55.50
2019-06-15T09:29:24.153Z,55.40
2019-06-15T09:31:56.634Z,55.60
2019-06-15T09:34:29.013Z,55.70
2019-06-15T09:37:01.424Z,55.40
2019-06-15T09:39:33.811Z,55.40
2019-06-15T09:42:06.219Z,54.60
2019-06-15T09:44:38.575Z,55.20
2019-06-15T09:47:10.985Z,55.20
2019-06-15T09:49:46.541Z,55.20
2019-06-15T09:52:18.966Z,54.40
2019-06-15T09:54:51.359Z,54.90
2019-06-15T09:57:23.815Z,54.90
2019-06-15T09:59:56.202Z,54.80
2019-06-15T10:02:28.603Z,55.30
2019-06-15T10:05:00.984Z,55.20
2019-06-15T10:07:33.465Z,55.60
2019-06-15T10:10:06.367Z,55.70
2019-06-15T10:12:39.777Z,55.50
2019-06-15T10:15:12.163Z,55.40
2019-06-15T10:17:45.398Z,54.50
2019-06-15T10:20:17.788Z,54.70
2019-06-15T10:22:50.195Z,54.50
2019-06-15T10:25:22.954Z,55.10
2019-06-15T10:27:55.359Z,54.80
2019-06-15T10:30:27.812Z,54.60
2019-06-15T10:33:00.218Z,54.10
2019-06-15T10:35:32.547Z,53.80
2019-06-15T10:38:05.305Z,53.60
2019-06-15T10:40:38.756Z,53.70
2019-06-15T10:43:11.299Z,53.70
2019-06-15T10:45:43.681Z,53.80
2019-06-15T10:48:16.100Z,53.20
2019-06-15T10:50:48.484Z,53.60
2019-06-15T10:53:20.896Z,54.50
2019-06-15T10:55:53.289Z,54.20
2019-06-15T10:58:25.707Z,54.60
2019-06-15T11:00:58.103Z,54.40
2019-06-15T11:03:30.540Z,54.30
2019-06-15T11:06:02.969Z,54.00
2019-06-15T11:08:35.392Z,53.70
2019-06-15T11:11:25.850Z,53.80
2019-06-15T11:13:58.282Z,53.50
2019-06-15T11:16:30.669Z,53.90
2019-06-15T11:19:03.092Z,53.90
2019-06-15T11:21:35.483Z,53.80
2019-06-15T11:24:07.915Z,53.80
2019-06-15T11:26:42.082Z,54.10
2019-06-15T11:29:14.701Z,53.40
2019-06-15T11:31:47.094Z,53.70
2019-06-15T11:34:19.504Z,53.50
2019-06-15T11:36:51.943Z,53.90
2019-06-15T11:39:24.318Z,53.70
2019-06-15T11:41:56.722Z,53.20
2019-06-15T11:44:29.110Z,53.90
2019-06-15T11:47:01.496Z,54.10
2019-06-15T11:49:33.932Z,54.40
2019-06-15T11:52:06.323Z,53.70
2019-06-15T11:54:38.810Z,54.00
2019-06-15T11:57:11.206Z,54.30
2019-06-15T11:59:43.683Z,54.40
2019-06-15T12:02:16.067Z,54.60
2019-06-15T12:04:58.017Z,54.20
2019-06-15T12:07:22.550Z,53.80
2019-06-15T12:09:54.982Z,54.20
2019-06-15T12:12:27.369Z,54.50
2019-06-15T12:14:59.777Z,54.70
2019-06-15T12:17:32.165Z,54.70
2019-06-15T12:20:05.006Z,54.90
2019-06-15T12:22:37.526Z,54.60
2019-06-15T12:25:09.940Z,54.10
2019-06-15T12:27:42.358Z,54.00
2019-06-15T12:30:15.477Z,54.10
2019-06-15T12:32:47.895Z,54.10
2019-06-15T12:35:20.287Z,54.50
2019-06-15T12:37:52.683Z,54.10
2019-06-15T12:40:25.105Z,53.90
2019-06-15T12:42:57.541Z,53.80
2019-06-15T12:45:30.038Z,54.20
2019-06-15T12:48:03.122Z,54.40
2019-06-15T12:50:35.535Z,54.60
2019-06-15T12:53:08.895Z,54.00
2019-06-15T12:55:41.300Z,54.80
2019-06-15T12:58:13.712Z,54.70
2019-06-15T13:00:58.891Z,54.00
2019-06-15T13:03:20.207Z,54.40
2019-06-15T13:05:52.630Z,54.10
2019-06-15T13:08:25.049Z,53.70
2019-06-15T13:10:57.429Z,53.40
2019-06-15T13:13:29.819Z,53.70
2019-06-15T13:16:20.493Z,53.90
2019-06-15T13:18:54.106Z,54.10
2019-06-15T13:21:26.506Z,54.00
2019-06-15T13:23:58.888Z,53.90
2019-06-15T13:26:31.208Z,53.50
2019-06-15T13:29:03.564Z,53.50
2019-06-15T13:31:35.963Z,53.90
2019-06-15T13:34:08.264Z,53.20
2019-06-15T13:36:40.732Z,53.20
2019-06-15T13:39:13.144Z,53.20
2019-06-15T13:41:45.543Z,54.20
2019-06-15T13:44:17.922Z,53.70
2019-06-15T13:46:50.516Z,53.40
2019-06-15T13:49:23.007Z,53.50
2019-06-15T13:51:55.462Z,53.00
2019-06-15T13:54:27.798Z,53.00
2019-06-15T13:57:00.201Z,53.10
2019-06-15T13:59:32.567Z,52.70
2019-06-15T14:02:04.976Z,52.90
2019-06-15T14:04:37.512Z,52.50
2019-06-15T14:07:09.918Z,53.30
2019-06-15T14:09:42.348Z,52.20
2019-06-15T14:12:14.774Z,51.90
2019-06-15T14:14:47.182Z,52.00
2019-06-15T14:17:19.573Z,51.80
2019-06-15T14:19:51.965Z,51.10
2019-06-15T14:22:24.457Z,51.60
2019-06-15T14:24:56.832Z,51.80
2019-06-15T14:27:29.237Z,51.70
2019-06-15T14:30:01.650Z,51.90
2019-06-15T14:32:35.106Z,51.90
2019-06-15T14:35:07.515Z,51.00
2019-06-15T14:37:39.916Z,51.80
2019-06-15T14:40:12.492Z,51.90
2019-06-15T14:42:45.410Z,51.50
2019-06-15T14:45:17.782Z,51.70
2019-06-15T14:47:50.230Z,51.60
2019-06-15T14:50:22.648Z,51.90
2019-06-15T14:52:55.052Z,51.80
2019-06-15T14:55:27.900Z,51.80
2019-06-15T14:58:00.373Z,52.10
2019-06-15T15:00:36.012Z,52.00
2019-06-15T15:03:08.459Z,51.90
2019-06-15T15:05:41.000Z,51.80
2019-06-15T15:08:13.799Z,51.50
2019-06-15T15:10:46.315Z,51.70
2019-06-15T15:13:19.041Z,51.80
2019-06-15T15:15:53.146Z,50.30
2019-06-15T15:18:27.055Z,51.60
2019-06-15T15:20:59.683Z,51.70
2019-06-15T15:23:32.142Z,51.60
2019-06-15T15:26:06.571Z,51.80
2019-06-15T15:28:38.571Z,51.60
2019-06-15T15:31:11.012Z,51.50
2019-06-15T15:33:43.426Z,51.50
2019-06-15T15:36:16.854Z,51.50
2019-06-15T15:38:49.508Z,51.50
2019-06-15T15:41:21.894Z,51.30
2019-06-15T15:43:54.301Z,51.10
2019-06-15T15:46:26.701Z,51.10
2019-06-15T15:48:59.114Z,51.30
2019-06-15T15:51:31.489Z,51.70
2019-06-15T15:54:03.904Z,51.60
2019-06-15T15:56:36.792Z,51.60
2019-06-15T15:59:09.194Z,51.60
2019-06-15T16:01:41.626Z,51.30
2019-06-15T16:04:13.960Z,51.80
2019-06-15T16:06:46.847Z,52.00
2019-06-15T16:09:19.354Z,52.20
2019-06-15T16:11:51.737Z,51.90
2019-06-15T16:14:26.475Z,51.90
2019-06-15T16:16:58.214Z,51.50
2019-06-15T16:19:30.627Z,51.70
2019-06-15T16:22:03.000Z,51.80
2019-06-15T16:24:37.486Z,51.40
2019-06-15T16:27:09.574Z,51.50
2019-06-15T16:29:42.024Z,51.50
2019-06-15T16:32:16.135Z,51.50
2019-06-15T16:34:48.671Z,51.50
2019-06-15T16:37:21.069Z,51.30
2019-06-15T16:39:53.470Z,51.30
2019-06-15T16:42:26.805Z,51.60
2019-06-15T16:44:59.223Z,51.60
2019-06-15T16:47:31.610Z,51.70
2019-06-15T16:50:06.830Z,51.40
2019-06-15T16:52:39.170Z,51.30
2019-06-15T16:55:11.575Z,51.40
2019-06-15T16:57:46.666Z,51.20
2019-06-15T17:00:20.310Z,51.10
2019-06-15T17:02:57.224Z,51.20
2019-06-15T17:05:29.827Z,51.40
2019-06-15T17:08:02.230Z,51.40
2019-06-15T17:10:41.540Z,51.40
2019-06-15T17:13:16.038Z,51.20
2019-06-15T17:15:48.255Z,51.50
2019-06-15T17:18:20.709Z,51.70
2019-06-15T17:20:53.307Z,51.50
2019-06-15T17:23:27.646Z,51.20
2019-06-15T17:26:01.471Z,51.50
2019-06-15T17:28:36.759Z,51.50
2019-06-15T17:31:12.038Z,52.00
2019-06-15T17:33:46.689Z,51.70
2019-06-15T17:36:18.687Z,51.70
2019-06-15T17:38:52.156Z,51.60
2019-06-15T17:41:26.500Z,51.40
2019-06-15T17:43:58.719Z,51.20
2019-06-15T17:46:34.321Z,51.20
2019-06-15T17:49:06.922Z,50.90
2019-06-15T17:51:39.384Z,50.80
2019-06-15T17:54:11.757Z,50.80
2019-06-15T17:56:46.205Z,50.80
2019-06-15T17:59:22.071Z,50.80
2019-06-15T18:01:52.545Z,50.90
2019-06-15T18:04:24.954Z,51.00
2019-06-15T18:06:57.410Z,51.00
2019-06-15T18:09:29.785Z,50.60
2019-06-15T18:12:02.261Z,50.60
2019-06-15T18:14:36.807Z,50.90
2019-06-15T18:17:08.757Z,50.60
2019-06-15T18:19:42.389Z,50.80
2019-06-15T18:22:16.968Z,50.80
2019-06-15T18:24:49.391Z,50.70
2019-06-15T18:27:21.795Z,50.40
2019-06-15T18:29:54.184Z,50.20
2019-06-15T18:32:26.939Z,50.30
2019-06-15T18:34:59.339Z,50.40
2019-06-15T18:37:32.013Z,50.40
2019-06-15T18:40:06.574Z,50.40
2019-06-15T18:42:38.688Z,50.40
2019-06-15T18:45:11.074Z,50.50
2019-06-15T18:47:43.604Z,50.40
2019-06-15T18:50:41.066Z,50.40
2019-06-15T18:53:13.478Z,50.40
2019-06-15T18:55:47.289Z,50.50
2019-06-15T18:58:20.168Z,50.60
2019-06-15T19:00:52.570Z,50.90
2019-06-15T19:03:26.238Z,51.00
2019-06-15T19:05:59.024Z,51.00
2019-06-15T19:08:31.432Z,50.40
2019-06-15T19:11:03.845Z,50.60
2019-06-15T19:13:36.249Z,50.80
2019-06-15T19:16:08.634Z,50.90
2019-06-15T19:18:41.061Z,50.90
2019-06-15T19:21:13.451Z,50.80
2019-06-15T19:23:46.926Z,50.70
2019-06-15T19:26:22.025Z,50.60
2019-06-15T19:28:55.989Z,50.70
2019-06-15T19:31:28.611Z,50.80
2019-06-15T19:34:01.206Z,50.80
2019-06-15T19:36:33.661Z,50.40
2019-06-15T19:39:07.729Z,50.60
2019-06-15T19:41:40.247Z,50.70
2019-06-15T19:44:12.656Z,50.60
2019-06-15T19:46:47.465Z,50.70
2019-06-15T19:49:20.192Z,50.80
2019-06-15T19:51:52.629Z,50.80
2019-06-15T19:54:26.360Z,50.90
2019-06-15T19:56:58.932Z,51.00
2019-06-15T19:59:31.345Z,50.90
2019-06-15T20:02:06.637Z,50.90
2019-06-15T20:04:37.954Z,50.90
2019-06-15T20:07:10.333Z,50.70
2019-06-15T20:09:42.742Z,50.90
2019-06-15T20:12:21.158Z,51.00
2019-06-15T20:14:49.300Z,51.00
2019-06-15T20:17:21.698Z,51.10
2019-06-15T20:19:55.966Z,50.90
2019-06-15T20:22:30.005Z,51.20
2019-06-15T20:25:02.601Z,51.20
2019-06-15T20:27:37.487Z,51.20
2019-06-15T20:30:09.301Z,51.30
2019-06-15T20:32:41.792Z,51.30
2019-06-15T20:35:20.341Z,51.50
2019-06-15T20:37:48.349Z,51.40
2019-06-15T20:40:20.757Z,51.40
2019-06-15T20:42:53.142Z,51.60
2019-06-15T20:45:26.856Z,51.60
2019-06-15T20:47:59.258Z,51.70
2019-06-15T20:50:31.674Z,51.70
2019-06-15T20:53:06.018Z,51.70
2019-06-15T20:55:38.272Z,51.80
2019-06-15T20:58:10.681Z,51.70
2019-06-15T21:00:43.096Z,51.80
2019-06-15T21:03:16.145Z,51.80
2019-06-15T21:05:49.811Z,51.90
2019-06-15T21:08:22.211Z,51.90
2019-06-15T21:10:56.385Z,52.00
2019-06-15T21:13:28.983Z,52.20
2019-06-15T21:16:01.421Z,52.00
2019-06-15T21:18:34.122Z,52.10
2019-06-15T21:21:07.267Z,52.60
2019-06-15T21:23:39.641Z,52.10
2019-06-15T21:26:12.052Z,52.20
2019-06-15T21:28:44.516Z,52.20
2019-06-15T21:31:16.920Z,52.30
2019-06-15T21:33:49.306Z,52.30
2019-06-15T21:36:21.716Z,52.40
2019-06-15T21:38:56.127Z,52.40
2019-06-15T21:41:28.213Z,52.30
2019-06-15T21:44:00.608Z,52.40
2019-06-15T21:46:33.011Z,52.50
2019-06-15T21:49:07.220Z,52.60
2019-06-15T21:51:39.821Z,52.50
2019-06-15T21:54:12.221Z,52.50
2019-06-15T21:56:44.631Z,52.50
2019-06-15T21:59:17.084Z,52.40
2019-06-15T22:01:49.493Z,52.20
2019-06-15T22:04:21.887Z,52.30
2019-06-15T22:06:56.267Z,52.30
2019-06-15T22:09:28.402Z,52.30
2019-06-15T22:12:00.836Z,52.40
2019-06-15T22:14:33.226Z,52.40
2019-06-15T22:17:06.726Z,52.50
2019-06-15T22:19:39.349Z,52.50
2019-06-15T22:22:11.743Z,52.60
2019-06-15T22:24:44.152Z,52.60
2019-06-15T22:27:17.053Z,52.80
2019-06-15T22:29:50.650Z,52.70
2019-06-15T22:32:23.027Z,52.80
2019-06-15T22:34:56.309Z,53.40
2019-06-15T22:37:28.865Z,52.80
2019-06-15T22:40:01.279Z,52.90
2019-06-15T22:42:36.182Z,52.80
2019-06-15T22:45:09.078Z,52.50
2019-06-15T22:47:41.453Z,52.60
2019-06-15T22:50:16.054Z,52.30
2019-06-15T22:52:47.957Z,52.20
2019-06-15T22:55:20.361Z,52.10
2019-06-15T22:57:52.752Z,52.30
2019-06-15T23:00:26.541Z,52.60
2019-06-15T23:02:59.020Z,52.70
2019-06-15T23:05:31.453Z,52.70
2019-06-15T23:08:03.839Z,52.90
2019-06-15T23:10:36.808Z,52.60
2019-06-15T23:13:09.356Z,52.80
2019-06-15T23:15:41.785Z,52.70
2019-06-15T23:18:14.172Z,52.70
2019-06-15T23:20:46.618Z,52.50
2019-06-15T23:23:19.023Z,52.50
2019-06-15T23:25:51.431Z,52.60
2019-06-15T23:28:23.821Z,53.30
2019-06-15T23:30:56.262Z,52.60
2019-06-15T23:33:28.618Z,52.70
2019-06-15T23:36:06.961Z,53.00
2019-06-15T23:38:39.356Z,52.90
2019-06-15T23:41:11.777Z,52.90
2019-06-15T23:43:46.292Z,52.90
2019-06-15T23:46:18.433Z,53.70
2019-06-15T23:48:50.841Z,53.10
2019-06-15T23:51:23.278Z,53.00
2019-06-15T23:53:57.130Z,53.10
2019-06-15T23:56:29.833Z,53.20
2019-06-15T23:59:02.189Z,53.00
